AMX234 MMMX-MMPR
Flight info
| Callsign | AMX234 |
|---|---|
| Flight time | 1h 0m |
| Altitude | 36000 |
| Route | SEBON3B SEBON UT124 GDL UJ14N NOTUP NOTUP1A |
| Aircraft | B742/H-SDFHIRWXY/L |
Departure
| Time | 2026-04-24 02:31 |
|---|---|
| Airport | Mexico City Benito Juárez International Airport (MMMX) |
Arrival
| Time | 2026-04-24 03:31 |
|---|---|
| Airport | Puerto Vallarta International Airport (MMPR) |
| Time | Latitude | Longitude | Altitude | Speed | Heading |
|---|---|---|---|---|---|
| 2026-04-24 02:05 | 19.42246 | -99.08142 | 7346 ft | 0 kts | 120° |
| 2026-04-24 02:14 | 19.42257 | -99.08163 | 7346 ft | 8 kts | 109° |
| 2026-04-24 02:15 | 19.42254 | -99.08195 | 7346 ft | 3 kts | 49° |
| 2026-04-24 02:15 | 19.42238 | -99.08205 | 7346 ft | 1 kts | 8° |
| 2026-04-24 02:15 | 19.42237 | -99.08205 | 7346 ft | 0 kts | 7° |
| 2026-04-24 02:21 | 19.42238 | -99.08205 | 7346 ft | 4 kts | 8° |
| 2026-04-24 02:21 | 19.42328 | -99.08202 | 7346 ft | 19 kts | 356° |
| 2026-04-24 02:21 | 19.42439 | -99.08143 | 7348 ft | 16 kts | 55° |
| 2026-04-24 02:21 | 19.42502 | -99.08029 | 7346 ft | 12 kts | 60° |
| 2026-04-24 02:22 | 19.42538 | -99.07965 | 7346 ft | 8 kts | 54° |
| 2026-04-24 02:22 | 19.42569 | -99.07913 | 7346 ft | 7 kts | 60° |
| 2026-04-24 02:22 | 19.42598 | -99.07859 | 7346 ft | 10 kts | 63° |
| 2026-04-24 02:22 | 19.42648 | -99.07819 | 7346 ft | 9 kts | 334° |
| 2026-04-24 02:23 | 19.42705 | -99.07851 | 7346 ft | 9 kts | 329° |
| 2026-04-24 02:23 | 19.42771 | -99.07882 | 7346 ft | 11 kts | 360° |
| 2026-04-24 02:23 | 19.42844 | -99.07850 | 7346 ft | 11 kts | 28° |
| 2026-04-24 02:23 | 19.42913 | -99.07808 | 7347 ft | 11 kts | 38° |
| 2026-04-24 02:24 | 19.42971 | -99.07745 | 7348 ft | 11 kts | 56° |
| 2026-04-24 02:24 | 19.43017 | -99.07669 | 7348 ft | 15 kts | 57° |
| 2026-04-24 02:24 | 19.43100 | -99.07523 | 7347 ft | 33 kts | 60° |
| 2026-04-24 02:24 | 19.43220 | -99.07316 | 7341 ft | 24 kts | 58° |
| 2026-04-24 02:25 | 19.43266 | -99.07153 | 7341 ft | 22 kts | 89° |
| 2026-04-24 02:25 | 19.43323 | -99.07005 | 7341 ft | 21 kts | 58° |
| 2026-04-24 02:25 | 19.43399 | -99.06877 | 7341 ft | 20 kts | 58° |
| 2026-04-24 02:25 | 19.43459 | -99.06763 | 7340 ft | 15 kts | 32° |
| 2026-04-24 02:26 | 19.43549 | -99.06709 | 7341 ft | 13 kts | 32° |
| 2026-04-24 02:26 | 19.43611 | -99.06634 | 7340 ft | 13 kts | 60° |
| 2026-04-24 02:26 | 19.43660 | -99.06545 | 7338 ft | 15 kts | 60° |
| 2026-04-24 02:26 | 19.43752 | -99.06377 | 7336 ft | 32 kts | 59° |
| 2026-04-24 02:27 | 19.43869 | -99.06166 | 7333 ft | 33 kts | 60° |
| 2026-04-24 02:27 | 19.43983 | -99.05962 | 7334 ft | 25 kts | 60° |
| 2026-04-24 02:27 | 19.44056 | -99.05856 | 7336 ft | 11 kts | 32° |
| 2026-04-24 02:27 | 19.44088 | -99.05842 | 7336 ft | 2 kts | 15° |
| 2026-04-24 02:28 | 19.44100 | -99.05839 | 7336 ft | 1 kts | 12° |
| 2026-04-24 02:28 | 19.44139 | -99.05834 | 7336 ft | 10 kts | 3° |
| 2026-04-24 02:28 | 19.44221 | -99.05830 | 7337 ft | 11 kts | 2° |
| 2026-04-24 02:28 | 19.44291 | -99.05827 | 7338 ft | 4 kts | 2° |
| 2026-04-24 02:29 | 19.44293 | -99.05827 | 7338 ft | 0 kts | 2° |
| 2026-04-24 02:29 | 19.44352 | -99.05824 | 7339 ft | 16 kts | 3° |
| 2026-04-24 02:29 | 19.44467 | -99.05817 | 7339 ft | 17 kts | 2° |
| 2026-04-24 02:29 | 19.44532 | -99.05880 | 7339 ft | 14 kts | 261° |
| 2026-04-24 02:30 | 19.44473 | -99.06003 | 7338 ft | 30 kts | 239° |
| 2026-04-24 02:30 | 19.44242 | -99.06416 | 7338 ft | 99 kts | 239° |
| 2026-04-24 02:30 | 19.43775 | -99.07238 | 7347 ft | 157 kts | 239° |
| 2026-04-24 02:30 | 19.43168 | -99.08354 | 7591 ft | 186 kts | 241° |
| 2026-04-24 02:31 | 19.42477 | -99.09476 | 8180 ft | 194 kts | 221° |
| 2026-04-24 02:31 | 19.41389 | -99.10011 | 8500 ft | 217 kts | 194° |
| 2026-04-24 02:31 | 19.40097 | -99.11109 | 9286 ft | 214 kts | 249° |
| 2026-04-24 02:31 | 19.39770 | -99.12723 | 10065 ft | 214 kts | 277° |
| 2026-04-24 02:32 | 19.40011 | -99.14244 | 10805 ft | 214 kts | 272° |
| 2026-04-24 02:32 | 19.39762 | -99.15785 | 11553 ft | 215 kts | 253° |
| 2026-04-24 02:32 | 19.39190 | -99.17229 | 12362 ft | 209 kts | 255° |
| 2026-04-24 02:32 | 19.39171 | -99.18703 | 12883 ft | 207 kts | 293° |
| 2026-04-24 02:33 | 19.39748 | -99.20184 | 13154 ft | 230 kts | 295° |
| 2026-04-24 02:33 | 19.40166 | -99.21277 | 13285 ft | 251 kts | 294° |
| 2026-04-24 02:33 | 19.41124 | -99.23767 | 13549 ft | 293 kts | 296° |
| 2026-04-24 02:33 | 19.42242 | -99.25715 | 13742 ft | 324 kts | 310° |
| 2026-04-24 02:34 | 19.43831 | -99.27500 | 13892 ft | 334 kts | 319° |
| 2026-04-24 02:34 | 19.45376 | -99.29127 | 14078 ft | 292 kts | 308° |
| 2026-04-24 02:34 | 19.46211 | -99.30987 | 14280 ft | 275 kts | 281° |
| 2026-04-24 02:34 | 19.46255 | -99.33025 | 14466 ft | 278 kts | 274° |
| 2026-04-24 02:35 | 19.46356 | -99.34388 | 14575 ft | 279 kts | 279° |
| 2026-04-24 02:35 | 19.46357 | -99.36437 | 14873 ft | 283 kts | 265° |
| 2026-04-24 02:35 | 19.45953 | -99.38491 | 15215 ft | 285 kts | 257° |
| 2026-04-24 02:35 | 19.45121 | -99.41167 | 15634 ft | 288 kts | 253° |
| 2026-04-24 02:36 | 19.44415 | -99.43184 | 15917 ft | 290 kts | 252° |
| 2026-04-24 02:36 | 19.43703 | -99.45164 | 16228 ft | 290 kts | 252° |
| 2026-04-24 02:36 | 19.42973 | -99.47189 | 16495 ft | 292 kts | 251° |
| 2026-04-24 02:36 | 19.42253 | -99.49181 | 16860 ft | 288 kts | 251° |
| 2026-04-24 02:37 | 19.41782 | -99.50484 | 17215 ft | 281 kts | 251° |
| 2026-04-24 02:37 | 19.40875 | -99.52989 | 17929 ft | 266 kts | 251° |
| 2026-04-24 02:37 | 19.40227 | -99.54780 | 18460 ft | 252 kts | 252° |
| 2026-04-24 02:37 | 19.39616 | -99.56467 | 18807 ft | 248 kts | 252° |
| 2026-04-24 02:38 | 19.38997 | -99.58188 | 18940 ft | 253 kts | 252° |
| 2026-04-24 02:38 | 19.38570 | -99.59369 | 19024 ft | 256 kts | 252° |
| 2026-04-24 02:38 | 19.38151 | -99.61199 | 19149 ft | 256 kts | 269° |
| 2026-04-24 02:38 | 19.38009 | -99.63750 | 19319 ft | 261 kts | 270° |
| 2026-04-24 02:39 | 19.37906 | -99.65681 | 19442 ft | 266 kts | 269° |
| 2026-04-24 02:39 | 19.37781 | -99.67691 | 19481 ft | 275 kts | 269° |
| 2026-04-24 02:39 | 19.37653 | -99.69754 | 19481 ft | 288 kts | 269° |
| 2026-04-24 02:39 | 19.37518 | -99.71919 | 19483 ft | 301 kts | 269° |
| 2026-04-24 02:40 | 19.37378 | -99.74188 | 19570 ft | 309 kts | 268° |
| 2026-04-24 02:40 | 19.37282 | -99.75703 | 19875 ft | 306 kts | 269° |
| 2026-04-24 02:40 | 19.37142 | -99.77921 | 20333 ft | 300 kts | 269° |
| 2026-04-24 02:40 | 19.36963 | -99.80795 | 20938 ft | 291 kts | 269° |
| 2026-04-24 02:41 | 19.36831 | -99.82922 | 21367 ft | 285 kts | 269° |
| 2026-04-24 02:41 | 19.36700 | -99.85011 | 21711 ft | 282 kts | 269° |
| 2026-04-24 02:41 | 19.36614 | -99.86404 | 21940 ft | 280 kts | 269° |
| 2026-04-24 02:41 | 19.36443 | -99.89131 | 22343 ft | 277 kts | 269° |
| 2026-04-24 02:42 | 19.36315 | -99.91166 | 22429 ft | 285 kts | 269° |
| 2026-04-24 02:42 | 19.36227 | -99.92589 | 22412 ft | 292 kts | 269° |
| 2026-04-24 02:42 | 19.36042 | -99.95540 | 22400 ft | 307 kts | 269° |
| 2026-04-24 02:42 | 19.35896 | -99.97849 | 22396 ft | 317 kts | 269° |
| 2026-04-24 02:43 | 19.35747 | -100.00184 | 22394 ft | 326 kts | 269° |
| 2026-04-24 02:43 | 19.35591 | -100.02634 | 22393 ft | 335 kts | 269° |
| 2026-04-24 02:43 | 19.35431 | -100.05144 | 22388 ft | 344 kts | 269° |
| 2026-04-24 02:43 | 19.35267 | -100.07711 | 22377 ft | 353 kts | 269° |
| 2026-04-24 02:44 | 19.35099 | -100.10339 | 22359 ft | 361 kts | 269° |
| 2026-04-24 02:44 | 19.35043 | -100.13002 | 22353 ft | 365 kts | 278° |
| 2026-04-24 02:44 | 19.35347 | -100.14786 | 22343 ft | 367 kts | 287° |
| 2026-04-24 02:44 | 19.36430 | -100.18243 | 22328 ft | 375 kts | 292° |
| 2026-04-24 02:45 | 19.37335 | -100.20834 | 22327 ft | 380 kts | 292° |
| 2026-04-24 02:45 | 19.38254 | -100.23498 | 22327 ft | 386 kts | 291° |
| 2026-04-24 02:45 | 19.39162 | -100.26186 | 22334 ft | 390 kts | 291° |
| 2026-04-24 02:45 | 19.40069 | -100.28906 | 22416 ft | 392 kts | 291° |
| 2026-04-24 02:46 | 19.40983 | -100.31664 | 22539 ft | 392 kts | 291° |
| 2026-04-24 02:46 | 19.41878 | -100.34373 | 22674 ft | 392 kts | 291° |
| 2026-04-24 02:46 | 19.42787 | -100.37128 | 22758 ft | 393 kts | 291° |
| 2026-04-24 02:46 | 19.43689 | -100.39861 | 22835 ft | 394 kts | 291° |
| 2026-04-24 02:47 | 19.44595 | -100.42612 | 22986 ft | 393 kts | 291° |
| 2026-04-24 02:47 | 19.45485 | -100.45316 | 23373 ft | 386 kts | 291° |
| 2026-04-24 02:47 | 19.46358 | -100.47971 | 23767 ft | 380 kts | 290° |
| 2026-04-24 02:47 | 19.47226 | -100.50615 | 24166 ft | 374 kts | 291° |
| 2026-04-24 02:48 | 19.48065 | -100.53172 | 24554 ft | 368 kts | 291° |
| 2026-04-24 02:48 | 19.48896 | -100.55705 | 24947 ft | 361 kts | 291° |
| 2026-04-24 02:48 | 19.49717 | -100.58209 | 25342 ft | 355 kts | 291° |
| 2026-04-24 02:48 | 19.50532 | -100.60696 | 25739 ft | 349 kts | 291° |
| 2026-04-24 02:49 | 19.51324 | -100.63110 | 26158 ft | 349 kts | 291° |
| 2026-04-24 02:49 | 19.52127 | -100.65556 | 26556 ft | 354 kts | 291° |
| 2026-04-24 02:49 | 19.52932 | -100.68032 | 26958 ft | 359 kts | 291° |
| 2026-04-24 02:49 | 19.53756 | -100.70570 | 27362 ft | 364 kts | 291° |
| 2026-04-24 02:50 | 19.54582 | -100.73119 | 27756 ft | 369 kts | 289° |
| 2026-04-24 02:50 | 19.55390 | -100.75747 | 28155 ft | 373 kts | 291° |
| 2026-04-24 02:50 | 19.56295 | -100.78342 | 28418 ft | 381 kts | 292° |
| 2026-04-24 02:50 | 19.57235 | -100.80999 | 28681 ft | 390 kts | 292° |
| 2026-04-24 02:51 | 19.58191 | -100.83733 | 28949 ft | 399 kts | 291° |
| 2026-04-24 02:51 | 19.59156 | -100.86530 | 29214 ft | 407 kts | 291° |
| 2026-04-24 02:51 | 19.60128 | -100.89365 | 29476 ft | 416 kts | 291° |
| 2026-04-24 02:51 | 19.61138 | -100.92320 | 29750 ft | 424 kts | 291° |
| 2026-04-24 02:52 | 19.62147 | -100.95283 | 30211 ft | 428 kts | 291° |
| 2026-04-24 02:52 | 19.63154 | -100.98242 | 30757 ft | 428 kts | 291° |
| 2026-04-24 02:52 | 19.64170 | -101.01229 | 31249 ft | 430 kts | 291° |
| 2026-04-24 02:52 | 19.65196 | -101.04248 | 31723 ft | 432 kts | 291° |
| 2026-04-24 02:53 | 19.66209 | -101.07230 | 32146 ft | 434 kts | 291° |
| 2026-04-24 02:53 | 19.67244 | -101.10278 | 32566 ft | 437 kts | 291° |
| 2026-04-24 02:53 | 19.68269 | -101.13299 | 32968 ft | 439 kts | 291° |
| 2026-04-24 02:53 | 19.69304 | -101.16354 | 33376 ft | 441 kts | 291° |
| 2026-04-24 02:54 | 19.70353 | -101.19452 | 33763 ft | 444 kts | 291° |
| 2026-04-24 02:54 | 19.71391 | -101.22518 | 34097 ft | 448 kts | 291° |
| 2026-04-24 02:54 | 19.72455 | -101.25664 | 34458 ft | 451 kts | 291° |
| 2026-04-24 02:54 | 19.73515 | -101.28800 | 34870 ft | 453 kts | 291° |
| 2026-04-24 02:55 | 19.74581 | -101.31954 | 35224 ft | 455 kts | 291° |
| 2026-04-24 02:55 | 19.75648 | -101.35113 | 35572 ft | 458 kts | 291° |
| 2026-04-24 02:55 | 19.76732 | -101.38325 | 35887 ft | 461 kts | 291° |
| 2026-04-24 02:55 | 19.77805 | -101.41508 | 36224 ft | 463 kts | 291° |
| 2026-04-24 02:56 | 19.78895 | -101.44740 | 36397 ft | 468 kts | 291° |
| 2026-04-24 02:56 | 19.79999 | -101.48017 | 36425 ft | 476 kts | 291° |
| 2026-04-24 02:56 | 19.82272 | -101.54770 | 36427 ft | 491 kts | 291° |
| 2026-04-24 02:57 | 19.84569 | -101.61613 | 36386 ft | 495 kts | 291° |
| 2026-04-24 02:57 | 19.86881 | -101.68535 | 36356 ft | 496 kts | 290° |
| 2026-04-24 02:58 | 19.89169 | -101.75447 | 36345 ft | 495 kts | 290° |
| 2026-04-24 02:58 | 19.91464 | -101.82343 | 36336 ft | 495 kts | 290° |
| 2026-04-24 02:59 | 19.93765 | -101.89235 | 36329 ft | 495 kts | 290° |
| 2026-04-24 02:59 | 19.96056 | -101.96104 | 36337 ft | 495 kts | 290° |
| 2026-04-24 03:00 | 19.98360 | -102.03020 | 36337 ft | 495 kts | 290° |
| 2026-04-24 03:00 | 20.00642 | -102.09882 | 36334 ft | 494 kts | 290° |
| 2026-04-24 03:01 | 20.02932 | -102.16777 | 36321 ft | 494 kts | 290° |
| 2026-04-24 03:01 | 20.05214 | -102.23658 | 36305 ft | 494 kts | 290° |
| 2026-04-24 03:02 | 20.07509 | -102.30588 | 36298 ft | 494 kts | 290° |
| 2026-04-24 03:02 | 20.09770 | -102.37423 | 36299 ft | 494 kts | 290° |
| 2026-04-24 03:03 | 20.12051 | -102.44334 | 36307 ft | 494 kts | 290° |
| 2026-04-24 03:03 | 20.14321 | -102.51221 | 36311 ft | 493 kts | 290° |
| 2026-04-24 03:04 | 20.16582 | -102.58088 | 36306 ft | 492 kts | 290° |
| 2026-04-24 03:04 | 20.18846 | -102.64972 | 36304 ft | 492 kts | 290° |
| 2026-04-24 03:05 | 20.21405 | -102.71690 | 36308 ft | 491 kts | 297° |
| 2026-04-24 03:05 | 20.24746 | -102.78104 | 36298 ft | 491 kts | 300° |
| 2026-04-24 03:06 | 20.28125 | -102.84423 | 36297 ft | 491 kts | 299° |
| 2026-04-24 03:06 | 20.31469 | -102.90788 | 36295 ft | 491 kts | 299° |
| 2026-04-24 03:07 | 20.34805 | -102.97199 | 36296 ft | 492 kts | 299° |
| 2026-04-24 03:07 | 20.38105 | -103.03560 | 36288 ft | 492 kts | 299° |
| 2026-04-24 03:08 | 20.43065 | -103.13135 | 36266 ft | 492 kts | 299° |
| 2026-04-24 03:09 | 20.46393 | -103.19568 | 36239 ft | 492 kts | 299° |
| 2026-04-24 03:09 | 20.49708 | -103.25983 | 36219 ft | 492 kts | 298° |
| 2026-04-24 03:10 | 20.52888 | -103.32449 | 36213 ft | 491 kts | 294° |
| 2026-04-24 03:10 | 20.55365 | -103.39247 | 36216 ft | 492 kts | 290° |
| 2026-04-24 03:11 | 20.57723 | -103.46120 | 36227 ft | 492 kts | 291° |
| 2026-04-24 03:11 | 20.60137 | -103.53038 | 36239 ft | 493 kts | 291° |
| 2026-04-24 03:12 | 20.62549 | -103.59879 | 36245 ft | 493 kts | 291° |
| 2026-04-24 03:12 | 20.64971 | -103.66743 | 36262 ft | 493 kts | 290° |
| 2026-04-24 03:13 | 20.67313 | -103.73466 | 36260 ft | 493 kts | 290° |
| 2026-04-24 03:13 | 20.69718 | -103.80344 | 36204 ft | 494 kts | 290° |
| 2026-04-24 03:13 | 20.70931 | -103.83804 | 36053 ft | 495 kts | 290° |
| 2026-04-24 03:14 | 20.72145 | -103.87257 | 35908 ft | 496 kts | 290° |
| 2026-04-24 03:14 | 20.73350 | -103.90688 | 35770 ft | 495 kts | 290° |
| 2026-04-24 03:14 | 20.74553 | -103.94112 | 35625 ft | 492 kts | 290° |
| 2026-04-24 03:14 | 20.75730 | -103.97468 | 35098 ft | 464 kts | 290° |
| 2026-04-24 03:15 | 20.76819 | -104.00575 | 34574 ft | 440 kts | 290° |
| 2026-04-24 03:15 | 20.77875 | -104.03586 | 34007 ft | 428 kts | 291° |
| 2026-04-24 03:15 | 20.78922 | -104.06572 | 33428 ft | 426 kts | 290° |
| 2026-04-24 03:15 | 20.79942 | -104.09483 | 32867 ft | 415 kts | 290° |
| 2026-04-24 03:16 | 20.80928 | -104.12300 | 32228 ft | 400 kts | 290° |
| 2026-04-24 03:16 | 20.81888 | -104.15048 | 31159 ft | 396 kts | 290° |
| 2026-04-24 03:16 | 20.82852 | -104.17811 | 30025 ft | 393 kts | 290° |
| 2026-04-24 03:16 | 20.83791 | -104.20506 | 28967 ft | 389 kts | 290° |
| 2026-04-24 03:17 | 20.84729 | -104.23196 | 27985 ft | 393 kts | 290° |
| 2026-04-24 03:17 | 20.85712 | -104.26017 | 27055 ft | 414 kts | 291° |
| 2026-04-24 03:17 | 20.86627 | -104.28979 | 26155 ft | 419 kts | 283° |
| 2026-04-24 03:17 | 20.86914 | -104.32009 | 25255 ft | 416 kts | 269° |
| 2026-04-24 03:18 | 20.86497 | -104.35075 | 24265 ft | 415 kts | 256° |
| 2026-04-24 03:18 | 20.85406 | -104.37929 | 23312 ft | 414 kts | 244° |
| 2026-04-24 03:18 | 20.84114 | -104.40632 | 22412 ft | 410 kts | 247° |
| 2026-04-24 03:18 | 20.83027 | -104.43435 | 21565 ft | 404 kts | 253° |
| 2026-04-24 03:19 | 20.82434 | -104.46299 | 20724 ft | 397 kts | 267° |
| 2026-04-24 03:19 | 20.82477 | -104.49230 | 19906 ft | 391 kts | 276° |
| 2026-04-24 03:19 | 20.82787 | -104.52085 | 19094 ft | 388 kts | 279° |
| 2026-04-24 03:19 | 20.83149 | -104.54936 | 18315 ft | 384 kts | 279° |
| 2026-04-24 03:20 | 20.83493 | -104.57720 | 17832 ft | 372 kts | 278° |
| 2026-04-24 03:20 | 20.83807 | -104.60404 | 17474 ft | 359 kts | 278° |
| 2026-04-24 03:20 | 20.84098 | -104.63003 | 17214 ft | 342 kts | 278° |
| 2026-04-24 03:20 | 20.84363 | -104.65433 | 16973 ft | 320 kts | 278° |
| 2026-04-24 03:21 | 20.84613 | -104.67806 | 16297 ft | 320 kts | 277° |
| 2026-04-24 03:21 | 20.84859 | -104.70155 | 15612 ft | 319 kts | 277° |
| 2026-04-24 03:21 | 20.85106 | -104.72478 | 15002 ft | 316 kts | 277° |
| 2026-04-24 03:21 | 20.85359 | -104.74828 | 14413 ft | 312 kts | 277° |
| 2026-04-24 03:22 | 20.85603 | -104.77095 | 13833 ft | 309 kts | 277° |
| 2026-04-24 03:22 | 20.85846 | -104.79344 | 13239 ft | 305 kts | 277° |
| 2026-04-24 03:22 | 20.86089 | -104.81602 | 12641 ft | 302 kts | 277° |
| 2026-04-24 03:22 | 20.86327 | -104.83811 | 12041 ft | 301 kts | 277° |
| 2026-04-24 03:23 | 20.86562 | -104.85998 | 11458 ft | 287 kts | 277° |
| 2026-04-24 03:23 | 20.86780 | -104.88044 | 10833 ft | 264 kts | 277° |
| 2026-04-24 03:23 | 20.86981 | -104.89915 | 10282 ft | 247 kts | 277° |
| 2026-04-24 03:23 | 20.87175 | -104.91716 | 9908 ft | 246 kts | 277° |
| 2026-04-24 03:24 | 20.87371 | -104.93543 | 9371 ft | 247 kts | 277° |
| 2026-04-24 03:24 | 20.87558 | -104.95307 | 8866 ft | 230 kts | 278° |
| 2026-04-24 03:24 | 20.87631 | -104.96978 | 8325 ft | 227 kts | 262° |
| 2026-04-24 03:24 | 20.86879 | -104.98451 | 7785 ft | 232 kts | 225° |
| 2026-04-24 03:25 | 20.85428 | -104.99196 | 7128 ft | 238 kts | 190° |
| 2026-04-24 03:25 | 20.83795 | -104.98998 | 6440 ft | 235 kts | 167° |
| 2026-04-24 03:25 | 20.82237 | -104.99160 | 5738 ft | 229 kts | 214° |
| 2026-04-24 03:25 | 20.81447 | -105.00590 | 4699 ft | 228 kts | 256° |
| 2026-04-24 03:26 | 20.80876 | -105.02114 | 4295 ft | 223 kts | 234° |
| 2026-04-24 03:26 | 20.80075 | -105.03466 | 4393 ft | 214 kts | 252° |
| 2026-04-24 03:26 | 20.79722 | -105.05039 | 4589 ft | 221 kts | 260° |
| 2026-04-24 03:26 | 20.79412 | -105.06659 | 4638 ft | 221 kts | 261° |
| 2026-04-24 03:27 | 20.79129 | -105.08250 | 4731 ft | 218 kts | 261° |
| 2026-04-24 03:27 | 20.78772 | -105.09838 | 4897 ft | 220 kts | 253° |
| 2026-04-24 03:27 | 20.78217 | -105.11388 | 4816 ft | 226 kts | 251° |
| 2026-04-24 03:27 | 20.77638 | -105.12963 | 4269 ft | 227 kts | 250° |
| 2026-04-24 03:28 | 20.76985 | -105.14486 | 3673 ft | 225 kts | 244° |
| 2026-04-24 03:28 | 20.76234 | -105.15910 | 3222 ft | 212 kts | 241° |
| 2026-04-24 03:28 | 20.75422 | -105.17170 | 2738 ft | 205 kts | 232° |
| 2026-04-24 03:28 | 20.74494 | -105.18285 | 2198 ft | 197 kts | 226° |
| 2026-04-24 03:29 | 20.73514 | -105.19248 | 1832 ft | 180 kts | 222° |
| 2026-04-24 03:29 | 20.72621 | -105.20114 | 1405 ft | 170 kts | 225° |
| 2026-04-24 03:29 | 20.71812 | -105.21032 | 913 ft | 167 kts | 229° |
| 2026-04-24 03:29 | 20.71064 | -105.21938 | 599 ft | 155 kts | 228° |
| 2026-04-24 03:30 | 20.70365 | -105.22731 | 382 ft | 147 kts | 227° |
| 2026-04-24 03:30 | 20.69668 | -105.23508 | 260 ft | 135 kts | 227° |
| 2026-04-24 03:30 | 20.69037 | -105.24237 | 111 ft | 130 kts | 228° |
| 2026-04-24 03:30 | 20.68445 | -105.24918 | 43 ft | 118 kts | 227° |
| 2026-04-24 03:31 | 20.68059 | -105.25357 | 36 ft | 24 kts | 226° |
| 2026-04-24 03:31 | 20.67903 | -105.25532 | 36 ft | 33 kts | 227° |
| 2026-04-24 03:31 | 20.67719 | -105.25639 | 36 ft | 28 kts | 200° |
| 2026-04-24 03:31 | 20.67655 | -105.25661 | 36 ft | 0 kts | 179° |
| 2026-04-24 03:32 | 20.67650 | -105.25661 | 36 ft | 3 kts | 179° |
| 2026-04-24 03:32 | 20.67615 | -105.25652 | 36 ft | 4 kts | 139° |
| 2026-04-24 03:32 | 20.67617 | -105.25622 | 36 ft | 4 kts | 59° |
| 2026-04-24 03:33 | 20.67637 | -105.25592 | 36 ft | 5 kts | 51° |
| 2026-04-24 03:33 | 20.67697 | -105.25521 | 36 ft | 23 kts | 46° |
| 2026-04-24 03:33 | 20.67837 | -105.25352 | 36 ft | 32 kts | 49° |